Flight Track Log - Related Links

Times and Time Zones

All times are in EDT time to prevent confusion due to time zone crossing. See the AWE1262 flight status page for this flight to view local times or setup timezone preferences in your user account.


Time Position Orientation Groundspeed Altitude Reporting Facility
EDT Latitude Longitude Course Direction KTS MPH feet Rate Location/Type
Fri 09:14:47 PM 39.8667 -75.2833 37° Northeast 156 180 1,000  Level Philadelphia TRACON
Fri 09:15:54 PM 39.8167 -75.3333 218° Southwest 220 253 2,800 1,984 Climbing Philadelphia TRACON
Fri 09:16:00 PM 39.8104 -74.8351 105° East  Level FlightAware Approximate
Fri 09:16:54 PM 39.7500 -75.3500 191° South 281 323 5,200  Level Philadelphia TRACON
Fri 09:17:00 PM 39.7836 -74.7013 105° East  Level FlightAware Approximate
Fri 09:18:00 PM 39.8667 -74.6167 37° Northeast  Level FlightAware Approximate
Fri 09:18:00 PM 39.7500 -75.2500 90° East 287 330 8,600  Level Philadelphia TRACON
Fri 09:18:54 PM 39.7500 -75.1500 90° East 308 354 10,800 1,267 Climbing Philadelphia TRACON
Fri 09:19:00 PM 39.9544 -74.5456 37° Northeast  Level FlightAware Approximate
Fri 09:20:41 PM 39.7750 -74.9467 81° East 357 411 12,000  Level New York Center
Fri 09:21:43 PM 39.7861 -74.8014 84° East 357 411 12,100 1,462 Climbing New York Center
Fri 09:22:40 PM 39.8256 -74.6819 67° East 363 418 14,900 2,542 Climbing New York Center
Fri 09:23:41 PM 39.9075 -74.6028 37° Northeast 343 395 17,100 2,016 Climbing New York Center
Fri 09:24:42 PM 39.9956 -74.5181 36° Northeast 360 414 19,000 1,966 Climbing New York Center
Fri 09:25:40 PM 40.0839 -74.4281 38° Northeast 378 435 21,000 1,916 Climbing New York Center
Fri 09:26:41 PM 40.1744 -74.3378 37° Northeast 397 457 22,800 1,770 Climbing New York Center
Fri 09:27:42 PM 40.2689 -74.2447 37° Northeast 410 472 24,600 1,587 Climbing New York Center
Fri 09:28:42 PM 40.3653 -74.1486 37° Northeast 416 479 26,000 1,424 Climbing New York Center
Fri 09:29:40 PM 40.4642 -74.0472 38° Northeast 434 499 27,400 1,455 Climbing New York Center
Fri 09:32:04 PM 40.6689 -73.7917 43° Northeast 443 510 30,900 1,382 Climbing Boston Center
Fri 09:33:04 PM 40.7814 -73.7831 North 406 467 32,100 1,050 Climbing Boston Center
Fri 09:34:04 PM 40.9044 -73.7856 359° North 390 449 33,000 450 Climbing Boston Center
Fri 09:35:04 PM 40.9981 -73.7903 358° North 402 463 33,000  Level Boston Center
Fri 09:36:04 PM 41.1417 -73.7989 357° North 417 480 33,000  Level Boston Center
Fri 09:37:04 PM 41.2625 -73.8042 358° North 424 488 33,000 -700 Level Boston Center
Fri 09:38:04 PM 41.3814 -73.8094 358° North 424 488 31,600 -2,200 Descending Boston Center
Fri 09:39:04 PM 41.5000 -73.8147 358° North 424 488 28,600 -2,300 Descending Boston Center
Fri 09:40:04 PM 41.6167 -73.8203 358° North 419 482 27,000 -800 Descending Boston Center
Fri 09:41:04 PM 41.7356 -73.8228 359° North 419 482 27,000  Level Boston Center
Fri 09:42:04 PM 41.8375 -73.8222 360° North 419 482 27,000  Level Boston Center
Fri 09:43:04 PM 41.9506 -73.7772 16° North 419 482 27,000  Level Boston Center
Fri 09:44:04 PM 42.0333 -73.6503 49° Northeast 413 475 27,000  Level Boston Center
Fri 09:45:04 PM 42.1203 -73.4981 52° Northeast 445 512 27,000 -400 Level Boston Center
Fri 09:46:04 PM 42.1967 -73.3678 52° Northeast 445 512 26,200 -1,400 Descending Boston Center
Fri 09:47:04 PM 42.2600 -73.2564 52° Northeast 432 497 24,200 -1,800 Descending Boston Center
Fri 09:48:04 PM 42.3400 -73.1114 53° Northeast 427 491 22,600 -2,000 Descending Boston Center
Fri 09:49:04 PM 42.4075 -72.9883 53° Northeast 430 495 20,200 -1,800 Descending Boston Center
Fri 09:50:04 PM 42.4661 -72.8847 52° Northeast 405 466 19,000 -600 Descending Boston Center
Fri 09:51:04 PM 42.5375 -72.7586 52° Northeast 388 447 19,000 -400 Level Boston Center
Fri 09:52:04 PM 42.5900 -72.6431 58° Northeast 388 447 18,200 -1,250 Descending Boston Center
Fri 09:53:04 PM 42.6339 -72.5164 65° Northeast 378 435 16,500 -1,650 Descending Boston Center
Fri 09:54:04 PM 42.6756 -72.3892 66° East 371 427 14,900 -1,700 Descending Boston Center
Fri 09:55:04 PM 42.7150 -72.2564 68° East 366 421 13,100 -1,750 Descending Boston Center
Fri 09:56:04 PM 42.7583 -72.1233 66° East 356 410 11,400 -1,450 Descending Boston Center
Fri 09:57:04 PM 42.7811 -72.0131 74° East 337 388 10,200 -1,100 Descending Boston Center
Fri 09:58:04 PM 42.7908 -71.8939 84° East 301 346 9,200 -1,200 Descending Boston Center
Fri 09:59:04 PM 42.7903 -71.7950 90° East 281 323 7,800 -1,650 Descending Boston Center
Fri 10:00:04 PM 42.7833 -71.6875 95° East 268 308 5,900 -1,750 Descending Boston Center
Fri 10:01:04 PM 42.7828 -71.6083 91° East 240 276 4,300 -1,600 Descending Boston Center

Login

Don't have an account? Register now (free) for customized features, flight alerts, and more!